sensor_id;sensor_type;location;lat;lon;timestamp;temperature;humidity
17381;DHT22;8808;52.478;13.378;2022-10-22T00:01:04;14.40;99.90
17381;DHT22;8808;52.478;13.378;2022-10-22T00:03:32;14.40;99.90
17381;DHT22;8808;52.478;13.378;2022-10-22T00:05:59;14.40;99.90
17381;DHT22;8808;52.478;13.378;2022-10-22T00:08:27;14.40;99.90
17381;DHT22;8808;52.478;13.378;2022-10-22T00:10:54;14.50;99.90
17381;DHT22;8808;52.478;13.378;2022-10-22T00:13:22;14.50;99.90
17381;DHT22;8808;52.478;13.378;2022-10-22T00:15:48;14.50;99.90
17381;DHT22;8808;52.478;13.378;2022-10-22T00:18:16;14.50;99.90
17381;DHT22;8808;52.478;13.378;2022-10-22T00:20:44;14.50;99.90
17381;DHT22;8808;52.478;13.378;2022-10-22T00:23:11;14.40;99.90
17381;DHT22;8808;52.478;13.378;2022-10-22T00:25:38;14.40;99.90
17381;DHT22;8808;52.478;13.378;2022-10-22T00:28:05;14.40;99.90
17381;DHT22;8808;52.478;13.378;2022-10-22T00:30:32;14.30;99.90
17381;DHT22;8808;52.478;13.378;2022-10-22T00:32:59;14.30;99.90
17381;DHT22;8808;52.478;13.378;2022-10-22T00:35:26;14.20;99.90
17381;DHT22;8808;52.478;13.378;2022-10-22T00:37:54;14.40;99.90
17381;DHT22;8808;52.478;13.378;2022-10-22T00:40:21;14.40;99.90
17381;DHT22;8808;52.478;13.378;2022-10-22T00:42:48;14.30;99.90
17381;DHT22;8808;52.478;13.378;2022-10-22T00:45:24;14.30;99.90
17381;DHT22;8808;52.478;13.378;2022-10-22T00:47:55;14.30;99.90
17381;DHT22;8808;52.478;13.378;2022-10-22T00:50:27;14.40;99.90
17381;DHT22;8808;52.478;13.378;2022-10-22T00:52:57;14.40;99.90
17381;DHT22;8808;52.478;13.378;2022-10-22T00:55:27;14.40;99.90
17381;DHT22;8808;52.478;13.378;2022-10-22T00:57:56;14.40;99.90
17381;DHT22;8808;52.478;13.378;2022-10-22T01:00:26;14.40;99.90
17381;DHT22;8808;52.478;13.378;2022-10-22T01:02:54;14.40;99.90
17381;DHT22;8808;52.478;13.378;2022-10-22T01:05:24;14.40;99.90
17381;DHT22;8808;52.478;13.378;2022-10-22T01:08:08;14.50;99.90
17381;DHT22;8808;52.478;13.378;2022-10-22T01:13:21;14.40;99.90
17381;DHT22;8808;52.478;13.378;2022-10-22T01:15:59;14.40;99.90
17381;DHT22;8808;52.478;13.378;2022-10-22T01:18:40;14.40;99.90
17381;DHT22;8808;52.478;13.378;2022-10-22T01:24:22;14.40;99.90
17381;DHT22;8808;52.478;13.378;2022-10-22T01:27:02;14.40;99.90
17381;DHT22;8808;52.478;13.378;2022-10-22T01:29:37;14.40;99.90
17381;DHT22;8808;52.478;13.378;2022-10-22T01:32:10;14.40;99.90
17381;DHT22;8808;52.478;13.378;2022-10-22T01:34:42;14.40;99.90
17381;DHT22;8808;52.478;13.378;2022-10-22T01:37:12;14.40;99.90
17381;DHT22;8808;52.478;13.378;2022-10-22T01:39:41;14.40;99.90
17381;DHT22;8808;52.478;13.378;2022-10-22T01:42:11;14.30;99.90
17381;DHT22;8808;52.478;13.378;2022-10-22T01:44:39;14.40;99.90
17381;DHT22;8808;52.478;13.378;2022-10-22T01:47:15;14.40;99.90
17381;DHT22;8808;52.478;13.378;2022-10-22T01:50:09;14.30;99.90
17381;DHT22;8808;52.478;13.378;2022-10-22T01:53:05;14.30;99.90
17381;DHT22;8808;52.478;13.378;2022-10-22T01:55:42;14.30;99.90
17381;DHT22;8808;52.478;13.378;2022-10-22T01:58:19;14.20;99.90
17381;DHT22;8808;52.478;13.378;2022-10-22T02:00:57;14.20;99.90
17381;DHT22;8808;52.478;13.378;2022-10-22T02:03:28;14.20;99.90
17381;DHT22;8808;52.478;13.378;2022-10-22T02:05:58;14.20;99.90
17381;DHT22;8808;52.478;13.378;2022-10-22T02:08:29;14.20;99.90
17381;DHT22;8808;52.478;13.378;2022-10-22T02:10:58;14.20;99.90
17381;DHT22;8808;52.478;13.378;2022-10-22T02:13:28;14.20;99.90
17381;DHT22;8808;52.478;13.378;2022-10-22T02:15:57;14.20;99.90
17381;DHT22;8808;52.478;13.378;2022-10-22T02:18:27;14.10;99.90
17381;DHT22;8808;52.478;13.378;2022-10-22T02:20:56;14.10;99.90
17381;DHT22;8808;52.478;13.378;2022-10-22T02:23:24;14.10;99.90
17381;DHT22;8808;52.478;13.378;2022-10-22T02:25:56;14.20;99.90
17381;DHT22;8808;52.478;13.378;2022-10-22T02:28:30;14.20;99.90
17381;DHT22;8808;52.478;13.378;2022-10-22T02:31:05;14.20;99.90
17381;DHT22;8808;52.478;13.378;2022-10-22T02:33:38;14.20;99.90
17381;DHT22;8808;52.478;13.378;2022-10-22T02:36:08;14.10;99.90
17381;DHT22;8808;52.478;13.378;2022-10-22T02:38:35;14.10;99.90
17381;DHT22;8808;52.478;13.378;2022-10-22T02:41:03;14.10;99.90
17381;DHT22;8808;52.478;13.378;2022-10-22T02:43:29;14.10;99.90
17381;DHT22;8808;52.478;13.378;2022-10-22T02:45:56;14.00;99.90
17381;DHT22;8808;52.478;13.378;2022-10-22T02:48:25;14.00;99.90
17381;DHT22;8808;52.478;13.378;2022-10-22T02:50:51;14.00;99.90
17381;DHT22;8808;52.478;13.378;2022-10-22T02:53:18;14.00;99.90
17381;DHT22;8808;52.478;13.378;2022-10-22T02:55:45;14.00;99.90
17381;DHT22;8808;52.478;13.378;2022-10-22T02:58:12;14.00;99.90
17381;DHT22;8808;52.478;13.378;2022-10-22T03:00:39;14.00;99.90
17381;DHT22;8808;52.478;13.378;2022-10-22T03:03:06;14.00;99.90
17381;DHT22;8808;52.478;13.378;2022-10-22T03:05:34;13.90;99.90
17381;DHT22;8808;52.478;13.378;2022-10-22T03:08:01;14.00;99.90
17381;DHT22;8808;52.478;13.378;2022-10-22T03:10:28;14.00;99.90
17381;DHT22;8808;52.478;13.378;2022-10-22T03:12:56;13.90;99.90
17381;DHT22;8808;52.478;13.378;2022-10-22T03:15:23;13.90;99.90
17381;DHT22;8808;52.478;13.378;2022-10-22T03:17:50;13.90;99.90
17381;DHT22;8808;52.478;13.378;2022-10-22T03:20:17;13.90;99.90
17381;DHT22;8808;52.478;13.378;2022-10-22T03:22:45;13.80;99.90
17381;DHT22;8808;52.478;13.378;2022-10-22T03:25:14;13.80;99.90
17381;DHT22;8808;52.478;13.378;2022-10-22T03:27:42;13.80;99.90
17381;DHT22;8808;52.478;13.378;2022-10-22T03:30:10;13.70;99.90
17381;DHT22;8808;52.478;13.378;2022-10-22T03:32:37;13.70;99.90
17381;DHT22;8808;52.478;13.378;2022-10-22T03:35:04;13.70;99.90
17381;DHT22;8808;52.478;13.378;2022-10-22T03:37:31;13.70;99.90
17381;DHT22;8808;52.478;13.378;2022-10-22T03:40:01;13.70;99.90
17381;DHT22;8808;52.478;13.378;2022-10-22T03:42:28;13.70;99.90
17381;DHT22;8808;52.478;13.378;2022-10-22T03:44:55;13.70;99.90
17381;DHT22;8808;52.478;13.378;2022-10-22T03:47:22;13.70;99.90
17381;DHT22;8808;52.478;13.378;2022-10-22T03:49:49;13.60;99.90
17381;DHT22;8808;52.478;13.378;2022-10-22T03:52:16;13.70;99.90
17381;DHT22;8808;52.478;13.378;2022-10-22T03:54:43;13.80;99.90
17381;DHT22;8808;52.478;13.378;2022-10-22T03:57:12;13.80;99.90
17381;DHT22;8808;52.478;13.378;2022-10-22T03:59:41;13.70;99.90
17381;DHT22;8808;52.478;13.378;2022-10-22T04:02:08;13.70;99.90
17381;DHT22;8808;52.478;13.378;2022-10-22T04:04:36;13.70;99.90
17381;DHT22;8808;52.478;13.378;2022-10-22T04:07:04;13.70;99.90
17381;DHT22;8808;52.478;13.378;2022-10-22T04:09:32;13.70;99.90
17381;DHT22;8808;52.478;13.378;2022-10-22T04:11:59;13.80;99.90
17381;DHT22;8808;52.478;13.378;2022-10-22T04:14:28;13.80;99.90
17381;DHT22;8808;52.478;13.378;2022-10-22T04:16:56;13.80;99.90
17381;DHT22;8808;52.478;13.378;2022-10-22T04:19:23;13.80;99.90
17381;DHT22;8808;52.478;13.378;2022-10-22T04:21:50;13.80;99.90
17381;DHT22;8808;52.478;13.378;2022-10-22T04:24:17;13.80;99.90
17381;DHT22;8808;52.478;13.378;2022-10-22T04:26:44;13.80;99.90
17381;DHT22;8808;52.478;13.378;2022-10-22T04:29:11;13.80;99.90
17381;DHT22;8808;52.478;13.378;2022-10-22T04:31:39;13.80;99.90
17381;DHT22;8808;52.478;13.378;2022-10-22T04:34:06;13.80;99.90
17381;DHT22;8808;52.478;13.378;2022-10-22T04:36:33;13.80;99.90
17381;DHT22;8808;52.478;13.378;2022-10-22T04:39:00;13.70;99.90
17381;DHT22;8808;52.478;13.378;2022-10-22T04:41:29;13.70;99.90
17381;DHT22;8808;52.478;13.378;2022-10-22T04:43:56;13.60;99.90
17381;DHT22;8808;52.478;13.378;2022-10-22T04:46:24;13.60;99.90
17381;DHT22;8808;52.478;13.378;2022-10-22T04:48:53;13.60;99.90
17381;DHT22;8808;52.478;13.378;2022-10-22T04:51:21;13.50;99.90
17381;DHT22;8808;52.478;13.378;2022-10-22T04:53:49;13.50;99.90
17381;DHT22;8808;52.478;13.378;2022-10-22T04:56:18;13.50;99.90
17381;DHT22;8808;52.478;13.378;2022-10-22T04:58:46;13.40;99.90
17381;DHT22;8808;52.478;13.378;2022-10-22T05:01:16;13.50;99.90
17381;DHT22;8808;52.478;13.378;2022-10-22T05:03:45;13.60;99.90
17381;DHT22;8808;52.478;13.378;2022-10-22T05:06:13;13.50;99.90
17381;DHT22;8808;52.478;13.378;2022-10-22T05:08:40;13.50;99.90
17381;DHT22;8808;52.478;13.378;2022-10-22T05:11:12;13.50;99.90
17381;DHT22;8808;52.478;13.378;2022-10-22T05:13:39;13.40;99.90
17381;DHT22;8808;52.478;13.378;2022-10-22T05:16:06;13.30;99.90
17381;DHT22;8808;52.478;13.378;2022-10-22T05:18:34;13.40;99.90
17381;DHT22;8808;52.478;13.378;2022-10-22T05:21:02;13.30;99.90
17381;DHT22;8808;52.478;13.378;2022-10-22T05:23:30;13.30;99.90
17381;DHT22;8808;52.478;13.378;2022-10-22T05:26:00;13.30;99.90
17381;DHT22;8808;52.478;13.378;2022-10-22T05:28:28;13.40;99.90
17381;DHT22;8808;52.478;13.378;2022-10-22T05:30:55;13.40;99.90
17381;DHT22;8808;52.478;13.378;2022-10-22T05:33:23;13.30;99.90
17381;DHT22;8808;52.478;13.378;2022-10-22T05:35:50;13.10;99.90
17381;DHT22;8808;52.478;13.378;2022-10-22T05:38:18;13.20;99.90
17381;DHT22;8808;52.478;13.378;2022-10-22T05:40:46;13.20;99.90
17381;DHT22;8808;52.478;13.378;2022-10-22T05:43:13;13.30;99.90
17381;DHT22;8808;52.478;13.378;2022-10-22T05:45:41;13.30;99.90
17381;DHT22;8808;52.478;13.378;2022-10-22T05:48:08;13.30;99.90
17381;DHT22;8808;52.478;13.378;2022-10-22T05:50:35;13.20;99.90
17381;DHT22;8808;52.478;13.378;2022-10-22T05:53:02;13.20;99.90
17381;DHT22;8808;52.478;13.378;2022-10-22T05:55:29;13.20;99.90
17381;DHT22;8808;52.478;13.378;2022-10-22T05:58:02;13.30;99.90
17381;DHT22;8808;52.478;13.378;2022-10-22T06:00:30;13.30;99.90
17381;DHT22;8808;52.478;13.378;2022-10-22T06:02:59;13.30;99.90
17381;DHT22;8808;52.478;13.378;2022-10-22T06:05:26;13.30;99.90
17381;DHT22;8808;52.478;13.378;2022-10-22T06:07:52;13.30;99.90
17381;DHT22;8808;52.478;13.378;2022-10-22T06:10:20;13.40;99.90
17381;DHT22;8808;52.478;13.378;2022-10-22T06:12:48;13.30;99.90
17381;DHT22;8808;52.478;13.378;2022-10-22T06:15:17;13.20;99.90
17381;DHT22;8808;52.478;13.378;2022-10-22T06:17:45;13.20;99.90
17381;DHT22;8808;52.478;13.378;2022-10-22T06:20:12;13.20;99.90
17381;DHT22;8808;52.478;13.378;2022-10-22T06:22:39;13.20;99.90
17381;DHT22;8808;52.478;13.378;2022-10-22T06:25:07;13.20;99.90
17381;DHT22;8808;52.478;13.378;2022-10-22T06:27:34;13.20;99.90
17381;DHT22;8808;52.478;13.378;2022-10-22T06:30:01;13.20;99.90
17381;DHT22;8808;52.478;13.378;2022-10-22T06:32:29;13.20;99.90
17381;DHT22;8808;52.478;13.378;2022-10-22T06:34:56;13.30;99.90
17381;DHT22;8808;52.478;13.378;2022-10-22T06:37:23;13.30;99.90
17381;DHT22;8808;52.478;13.378;2022-10-22T06:39:49;13.40;99.90
17381;DHT22;8808;52.478;13.378;2022-10-22T06:42:16;13.40;99.90
17381;DHT22;8808;52.478;13.378;2022-10-22T06:44:43;13.50;99.90
17381;DHT22;8808;52.478;13.378;2022-10-22T06:47:10;13.50;99.90
17381;DHT22;8808;52.478;13.378;2022-10-22T06:49:38;13.50;99.90
17381;DHT22;8808;52.478;13.378;2022-10-22T06:52:05;13.50;99.90
17381;DHT22;8808;52.478;13.378;2022-10-22T06:54:32;13.60;99.90
17381;DHT22;8808;52.478;13.378;2022-10-22T06:56:59;13.60;99.90
17381;DHT22;8808;52.478;13.378;2022-10-22T06:59:25;13.50;99.90
17381;DHT22;8808;52.478;13.378;2022-10-22T07:01:52;13.60;99.90
17381;DHT22;8808;52.478;13.378;2022-10-22T07:04:19;13.60;99.90
17381;DHT22;8808;52.478;13.378;2022-10-22T07:06:47;13.60;99.90
17381;DHT22;8808;52.478;13.378;2022-10-22T07:09:14;13.60;99.90
17381;DHT22;8808;52.478;13.378;2022-10-22T07:11:43;13.70;99.90
17381;DHT22;8808;52.478;13.378;2022-10-22T07:14:11;13.70;99.90
17381;DHT22;8808;52.478;13.378;2022-10-22T07:16:38;13.70;99.90
17381;DHT22;8808;52.478;13.378;2022-10-22T07:19:07;13.70;99.90
17381;DHT22;8808;52.478;13.378;2022-10-22T07:21:34;13.70;99.90
17381;DHT22;8808;52.478;13.378;2022-10-22T07:24:03;13.60;99.90
17381;DHT22;8808;52.478;13.378;2022-10-22T07:26:30;13.70;99.90
17381;DHT22;8808;52.478;13.378;2022-10-22T07:28:57;13.70;99.90
17381;DHT22;8808;52.478;13.378;2022-10-22T07:31:24;13.80;99.90
17381;DHT22;8808;52.478;13.378;2022-10-22T07:33:51;13.80;99.90
17381;DHT22;8808;52.478;13.378;2022-10-22T07:36:18;13.90;99.90
17381;DHT22;8808;52.478;13.378;2022-10-22T07:38:46;13.90;99.90
17381;DHT22;8808;52.478;13.378;2022-10-22T07:41:15;13.90;99.90
17381;DHT22;8808;52.478;13.378;2022-10-22T07:43:42;13.90;99.90
17381;DHT22;8808;52.478;13.378;2022-10-22T07:46:10;13.90;99.90
17381;DHT22;8808;52.478;13.378;2022-10-22T07:48:37;14.00;99.90
17381;DHT22;8808;52.478;13.378;2022-10-22T07:51:04;14.10;99.90
17381;DHT22;8808;52.478;13.378;2022-10-22T07:53:31;14.10;99.90
17381;DHT22;8808;52.478;13.378;2022-10-22T07:55:58;14.10;99.90
17381;DHT22;8808;52.478;13.378;2022-10-22T07:58:26;14.20;99.90
17381;DHT22;8808;52.478;13.378;2022-10-22T08:00:54;14.10;99.90
17381;DHT22;8808;52.478;13.378;2022-10-22T08:03:21;14.20;99.90
17381;DHT22;8808;52.478;13.378;2022-10-22T08:05:48;14.20;99.90
17381;DHT22;8808;52.478;13.378;2022-10-22T08:08:15;14.20;99.90
17381;DHT22;8808;52.478;13.378;2022-10-22T08:10:45;14.20;99.90
17381;DHT22;8808;52.478;13.378;2022-10-22T08:13:13;14.20;99.90
17381;DHT22;8808;52.478;13.378;2022-10-22T08:15:41;14.30;99.90
17381;DHT22;8808;52.478;13.378;2022-10-22T08:18:09;14.30;99.90
17381;DHT22;8808;52.478;13.378;2022-10-22T08:20:36;14.30;99.90
17381;DHT22;8808;52.478;13.378;2022-10-22T08:23:02;14.40;99.90
17381;DHT22;8808;52.478;13.378;2022-10-22T08:25:29;14.40;99.90
17381;DHT22;8808;52.478;13.378;2022-10-22T08:27:56;14.30;99.90
17381;DHT22;8808;52.478;13.378;2022-10-22T08:30:23;14.30;99.90
17381;DHT22;8808;52.478;13.378;2022-10-22T08:32:53;14.40;99.90
17381;DHT22;8808;52.478;13.378;2022-10-22T08:35:20;14.40;99.90
17381;DHT22;8808;52.478;13.378;2022-10-22T08:37:47;14.50;99.90
17381;DHT22;8808;52.478;13.378;2022-10-22T08:40:20;14.50;99.90
17381;DHT22;8808;52.478;13.378;2022-10-22T08:46:01;14.60;99.90
17381;DHT22;8808;52.478;13.378;2022-10-22T08:48:42;14.60;99.90
17381;DHT22;8808;52.478;13.378;2022-10-22T08:51:14;14.60;99.90
17381;DHT22;8808;52.478;13.378;2022-10-22T08:53:59;14.60;99.90
17381;DHT22;8808;52.478;13.378;2022-10-22T08:56:29;14.70;99.90
17381;DHT22;8808;52.478;13.378;2022-10-22T08:58:59;14.60;99.90
17381;DHT22;8808;52.478;13.378;2022-10-22T09:01:32;14.70;99.90
17381;DHT22;8808;52.478;13.378;2022-10-22T09:04:06;14.80;99.90
17381;DHT22;8808;52.478;13.378;2022-10-22T09:06:39;14.70;99.90
17381;DHT22;8808;52.478;13.378;2022-10-22T09:09:11;14.80;99.90
17381;DHT22;8808;52.478;13.378;2022-10-22T09:11:43;14.90;99.90
17381;DHT22;8808;52.478;13.378;2022-10-22T09:14:13;14.90;99.90
17381;DHT22;8808;52.478;13.378;2022-10-22T09:16:52;15.00;99.90
17381;DHT22;8808;52.478;13.378;2022-10-22T09:19:30;15.00;99.90
17381;DHT22;8808;52.478;13.378;2022-10-22T09:22:03;15.00;99.90
17381;DHT22;8808;52.478;13.378;2022-10-22T09:24:37;15.00;99.90
17381;DHT22;8808;52.478;13.378;2022-10-22T09:27:10;15.00;99.90
17381;DHT22;8808;52.478;13.378;2022-10-22T09:29:37;15.00;99.90
17381;DHT22;8808;52.478;13.378;2022-10-22T09:32:04;15.10;99.90
17381;DHT22;8808;52.478;13.378;2022-10-22T09:34:33;15.10;99.90
17381;DHT22;8808;52.478;13.378;2022-10-22T09:37:04;15.20;99.90
17381;DHT22;8808;52.478;13.378;2022-10-22T09:39:32;15.20;99.90
17381;DHT22;8808;52.478;13.378;2022-10-22T09:41:59;15.20;99.90
17381;DHT22;8808;52.478;13.378;2022-10-22T09:44:26;15.20;99.90
17381;DHT22;8808;52.478;13.378;2022-10-22T09:46:53;15.30;99.90
17381;DHT22;8808;52.478;13.378;2022-10-22T09:49:22;15.30;99.90
17381;DHT22;8808;52.478;13.378;2022-10-22T09:51:54;15.40;99.90
17381;DHT22;8808;52.478;13.378;2022-10-22T09:54:22;15.40;99.90
17381;DHT22;8808;52.478;13.378;2022-10-22T09:56:53;15.40;99.90
17381;DHT22;8808;52.478;13.378;2022-10-22T09:59:28;15.50;99.90
17381;DHT22;8808;52.478;13.378;2022-10-22T10:01:58;15.50;99.90
17381;DHT22;8808;52.478;13.378;2022-10-22T10:04:26;15.50;99.90
17381;DHT22;8808;52.478;13.378;2022-10-22T10:06:55;15.60;99.90
17381;DHT22;8808;52.478;13.378;2022-10-22T10:09:24;15.60;99.90
17381;DHT22;8808;52.478;13.378;2022-10-22T10:11:56;15.60;99.90
17381;DHT22;8808;52.478;13.378;2022-10-22T10:14:31;15.60;99.90
17381;DHT22;8808;52.478;13.378;2022-10-22T10:17:06;15.60;99.90
17381;DHT22;8808;52.478;13.378;2022-10-22T10:19:45;15.60;99.90
17381;DHT22;8808;52.478;13.378;2022-10-22T10:22:28;15.50;99.90
17381;DHT22;8808;52.478;13.378;2022-10-22T10:25:11;15.60;99.90
17381;DHT22;8808;52.478;13.378;2022-10-22T10:27:44;15.60;99.90
17381;DHT22;8808;52.478;13.378;2022-10-22T10:30:14;15.60;99.90
17381;DHT22;8808;52.478;13.378;2022-10-22T10:33:04;15.60;99.90
17381;DHT22;8808;52.478;13.378;2022-10-22T10:35:44;15.70;99.90
17381;DHT22;8808;52.478;13.378;2022-10-22T10:38:31;15.70;99.90
17381;DHT22;8808;52.478;13.378;2022-10-22T10:41:12;15.70;99.90
17381;DHT22;8808;52.478;13.378;2022-10-22T10:43:55;15.80;99.90
17381;DHT22;8808;52.478;13.378;2022-10-22T10:46:32;15.80;99.90
17381;DHT22;8808;52.478;13.378;2022-10-22T10:49:07;15.90;99.90
17381;DHT22;8808;52.478;13.378;2022-10-22T10:51:42;15.80;99.90
17381;DHT22;8808;52.478;13.378;2022-10-22T10:54:37;15.80;99.90
17381;DHT22;8808;52.478;13.378;2022-10-22T10:57:15;15.80;99.90
17381;DHT22;8808;52.478;13.378;2022-10-22T10:59:53;15.80;99.90
17381;DHT22;8808;52.478;13.378;2022-10-22T11:02:50;15.90;99.90
17381;DHT22;8808;52.478;13.378;2022-10-22T11:05:33;15.90;99.90
17381;DHT22;8808;52.478;13.378;2022-10-22T11:08:08;16.10;99.90
17381;DHT22;8808;52.478;13.378;2022-10-22T11:10:39;16.10;99.90
17381;DHT22;8808;52.478;13.378;2022-10-22T11:13:14;16.20;99.90
17381;DHT22;8808;52.478;13.378;2022-10-22T11:15:45;16.30;99.90
17381;DHT22;8808;52.478;13.378;2022-10-22T11:18:17;16.30;99.90
17381;DHT22;8808;52.478;13.378;2022-10-22T11:21:04;16.40;99.90
17381;DHT22;8808;52.478;13.378;2022-10-22T11:23:37;16.40;99.90
17381;DHT22;8808;52.478;13.378;2022-10-22T11:26:14;16.60;99.90
17381;DHT22;8808;52.478;13.378;2022-10-22T11:28:46;16.50;99.90
17381;DHT22;8808;52.478;13.378;2022-10-22T11:31:16;16.80;99.90
17381;DHT22;8808;52.478;13.378;2022-10-22T11:33:49;17.00;99.90
17381;DHT22;8808;52.478;13.378;2022-10-22T11:36:18;17.10;99.90
17381;DHT22;8808;52.478;13.378;2022-10-22T11:38:46;17.20;99.90
17381;DHT22;8808;52.478;13.378;2022-10-22T11:41:16;17.30;99.90
17381;DHT22;8808;52.478;13.378;2022-10-22T11:44:04;17.20;99.90
17381;DHT22;8808;52.478;13.378;2022-10-22T11:46:39;17.30;99.90
17381;DHT22;8808;52.478;13.378;2022-10-22T11:49:22;17.50;99.90
17381;DHT22;8808;52.478;13.378;2022-10-22T11:51:51;17.70;99.90
17381;DHT22;8808;52.478;13.378;2022-10-22T11:54:38;17.70;99.90
17381;DHT22;8808;52.478;13.378;2022-10-22T11:57:21;17.60;99.90
17381;DHT22;8808;52.478;13.378;2022-10-22T11:59:55;17.70;99.90
17381;DHT22;8808;52.478;13.378;2022-10-22T12:02:40;17.70;99.90
17381;DHT22;8808;52.478;13.378;2022-10-22T12:05:35;17.80;99.90
17381;DHT22;8808;52.478;13.378;2022-10-22T12:08:24;17.90;99.90
17381;DHT22;8808;52.478;13.378;2022-10-22T12:13:27;18.50;99.90
17381;DHT22;8808;52.478;13.378;2022-10-22T12:18:27;19.00;99.90
17381;DHT22;8808;52.478;13.378;2022-10-22T12:20:58;18.70;99.90
17381;DHT22;8808;52.478;13.378;2022-10-22T12:23:29;18.70;99.90
17381;DHT22;8808;52.478;13.378;2022-10-22T12:25:57;19.30;99.90
17381;DHT22;8808;52.478;13.378;2022-10-22T12:28:26;19.60;99.90
17381;DHT22;8808;52.478;13.378;2022-10-22T12:30:53;19.30;99.90
17381;DHT22;8808;52.478;13.378;2022-10-22T12:33:21;19.00;99.90
17381;DHT22;8808;52.478;13.378;2022-10-22T12:35:54;19.00;99.90
17381;DHT22;8808;52.478;13.378;2022-10-22T12:38:23;19.20;99.90
17381;DHT22;8808;52.478;13.378;2022-10-22T12:40:54;19.10;99.90
17381;DHT22;8808;52.478;13.378;2022-10-22T12:43:26;18.90;99.90
17381;DHT22;8808;52.478;13.378;2022-10-22T12:45:54;18.80;99.90
17381;DHT22;8808;52.478;13.378;2022-10-22T12:48:25;18.70;99.90
17381;DHT22;8808;52.478;13.378;2022-10-22T12:50:55;18.70;99.90
17381;DHT22;8808;52.478;13.378;2022-10-22T12:53:26;18.60;99.90
17381;DHT22;8808;52.478;13.378;2022-10-22T12:56:04;18.60;99.90
17381;DHT22;8808;52.478;13.378;2022-10-22T12:58:38;18.60;99.90
17381;DHT22;8808;52.478;13.378;2022-10-22T13:01:08;18.50;99.90
17381;DHT22;8808;52.478;13.378;2022-10-22T13:03:41;18.40;99.90
17381;DHT22;8808;52.478;13.378;2022-10-22T13:06:26;18.40;99.90
17381;DHT22;8808;52.478;13.378;2022-10-22T13:09:06;18.30;99.90
17381;DHT22;8808;52.478;13.378;2022-10-22T13:11:38;18.20;99.90
17381;DHT22;8808;52.478;13.378;2022-10-22T13:14:17;18.20;99.90
17381;DHT22;8808;52.478;13.378;2022-10-22T13:17:09;18.20;99.90
17381;DHT22;8808;52.478;13.378;2022-10-22T13:22:28;18.20;99.90
17381;DHT22;8808;52.478;13.378;2022-10-22T13:24:57;18.60;99.90
17381;DHT22;8808;52.478;13.378;2022-10-22T13:27:25;18.60;99.90
17381;DHT22;8808;52.478;13.378;2022-10-22T13:29:54;18.70;99.90
17381;DHT22;8808;52.478;13.378;2022-10-22T13:32:27;18.70;99.90
17381;DHT22;8808;52.478;13.378;2022-10-22T13:34:57;19.30;99.90
17381;DHT22;8808;52.478;13.378;2022-10-22T13:37:24;18.90;99.90
17381;DHT22;8808;52.478;13.378;2022-10-22T13:39:52;18.60;99.90
17381;DHT22;8808;52.478;13.378;2022-10-22T13:42:19;18.70;99.90
17381;DHT22;8808;52.478;13.378;2022-10-22T13:44:45;18.50;99.90
17381;DHT22;8808;52.478;13.378;2022-10-22T13:47:24;18.50;99.90
17381;DHT22;8808;52.478;13.378;2022-10-22T13:49:51;18.30;99.90
17381;DHT22;8808;52.478;13.378;2022-10-22T13:52:27;18.20;99.90
17381;DHT22;8808;52.478;13.378;2022-10-22T13:54:54;18.20;99.90
17381;DHT22;8808;52.478;13.378;2022-10-22T13:57:21;18.20;99.90
17381;DHT22;8808;52.478;13.378;2022-10-22T13:59:48;18.20;99.90
17381;DHT22;8808;52.478;13.378;2022-10-22T14:02:17;18.20;99.90
17381;DHT22;8808;52.478;13.378;2022-10-22T14:04:45;18.30;99.90
17381;DHT22;8808;52.478;13.378;2022-10-22T14:07:12;18.30;99.90
17381;DHT22;8808;52.478;13.378;2022-10-22T14:09:40;18.20;99.90
17381;DHT22;8808;52.478;13.378;2022-10-22T14:12:11;18.20;99.90
17381;DHT22;8808;52.478;13.378;2022-10-22T14:14:38;18.30;99.90
17381;DHT22;8808;52.478;13.378;2022-10-22T14:17:07;18.30;99.90
17381;DHT22;8808;52.478;13.378;2022-10-22T14:19:36;18.30;99.90
17381;DHT22;8808;52.478;13.378;2022-10-22T14:22:02;18.20;99.90
17381;DHT22;8808;52.478;13.378;2022-10-22T14:24:29;18.10;99.90
17381;DHT22;8808;52.478;13.378;2022-10-22T14:26:56;18.20;99.90
17381;DHT22;8808;52.478;13.378;2022-10-22T14:29:23;18.20;99.90
17381;DHT22;8808;52.478;13.378;2022-10-22T14:31:50;18.20;99.90
17381;DHT22;8808;52.478;13.378;2022-10-22T14:34:17;18.20;99.90
17381;DHT22;8808;52.478;13.378;2022-10-22T14:36:45;18.10;99.90
17381;DHT22;8808;52.478;13.378;2022-10-22T14:39:12;18.10;99.90
17381;DHT22;8808;52.478;13.378;2022-10-22T14:41:39;18.10;99.90
17381;DHT22;8808;52.478;13.378;2022-10-22T14:44:07;18.10;99.90
17381;DHT22;8808;52.478;13.378;2022-10-22T14:46:37;18.00;99.90
17381;DHT22;8808;52.478;13.378;2022-10-22T14:49:04;18.10;99.90
17381;DHT22;8808;52.478;13.378;2022-10-22T14:51:31;18.10;99.90
17381;DHT22;8808;52.478;13.378;2022-10-22T14:53:59;18.00;99.90
17381;DHT22;8808;52.478;13.378;2022-10-22T14:56:26;18.00;99.90
17381;DHT22;8808;52.478;13.378;2022-10-22T14:58:53;18.00;99.90
17381;DHT22;8808;52.478;13.378;2022-10-22T15:01:20;17.90;99.90
17381;DHT22;8808;52.478;13.378;2022-10-22T15:03:47;17.90;99.90
17381;DHT22;8808;52.478;13.378;2022-10-22T15:06:13;17.90;99.90
17381;DHT22;8808;52.478;13.378;2022-10-22T15:08:40;17.90;99.90
17381;DHT22;8808;52.478;13.378;2022-10-22T15:11:11;17.90;99.90
17381;DHT22;8808;52.478;13.378;2022-10-22T15:13:38;17.80;99.90
17381;DHT22;8808;52.478;13.378;2022-10-22T15:16:07;17.90;99.90
17381;DHT22;8808;52.478;13.378;2022-10-22T15:18:35;17.70;99.90
17381;DHT22;8808;52.478;13.378;2022-10-22T15:21:04;18.00;99.90
17381;DHT22;8808;52.478;13.378;2022-10-22T15:23:31;17.90;99.90
17381;DHT22;8808;52.478;13.378;2022-10-22T15:25:58;17.80;99.90
17381;DHT22;8808;52.478;13.378;2022-10-22T15:28:27;17.70;99.90
17381;DHT22;8808;52.478;13.378;2022-10-22T15:30:55;17.60;99.90
17381;DHT22;8808;52.478;13.378;2022-10-22T15:33:23;17.50;99.90
17381;DHT22;8808;52.478;13.378;2022-10-22T15:35:49;17.30;99.90
17381;DHT22;8808;52.478;13.378;2022-10-22T15:38:16;17.20;99.90
17381;DHT22;8808;52.478;13.378;2022-10-22T15:40:44;17.10;99.90
17381;DHT22;8808;52.478;13.378;2022-10-22T15:43:11;17.00;99.90
17381;DHT22;8808;52.478;13.378;2022-10-22T15:45:39;16.90;99.90
17381;DHT22;8808;52.478;13.378;2022-10-22T15:48:06;16.80;99.90
17381;DHT22;8808;52.478;13.378;2022-10-22T15:50:36;16.70;99.90
17381;DHT22;8808;52.478;13.378;2022-10-22T15:53:06;16.60;99.90
17381;DHT22;8808;52.478;13.378;2022-10-22T15:55:32;16.50;99.90
17381;DHT22;8808;52.478;13.378;2022-10-22T15:57:59;16.40;99.90
17381;DHT22;8808;52.478;13.378;2022-10-22T16:00:26;16.20;99.90
17381;DHT22;8808;52.478;13.378;2022-10-22T16:02:54;16.20;99.90
17381;DHT22;8808;52.478;13.378;2022-10-22T16:05:21;16.00;99.90